Albertville, Canada
Current Conditions -  °F | °C
As of 4:00 AM on Sunday 21 Dec 2014 (Local Time) from CYPA Reporting Station
Light Snow Light Snow  
Wind Chill: 21°   Ceiling: 400
Heat Index: 21°   Visibility: 3mi
Dew Point: 19°   Wind: 3mph
Humidity: 93%   Direction: 170°S
Pressure: 29.54"   Gusts: NA
Location:  53.42°N, 105.53°W
Report Text: CYPA 211000Z 17003KT 3SM -SG BR OVC004 M06/M07 A2954 RMK ST8 SLP033
Loading
Personal Weather Stations






























Interactive Weather Map New forecast layout! Learn more

10-Day Weather Forecast

Advertisements
Track Severe Weather on mobile